Time;durP1;ratioP1;P1;durP2;ratioP2;P2;SDS_P1;SDS_P2;PMS_P1;PMS_P2;Temp;Humidity;BMP_temperature;BMP_pressure;BME280_temperature;BME280_humidity;BME280_pressure;Samples;Min_cycle;Max_cycle;Signal;HPM_P1;HPM_P2
2022/12/22 18:12:34;;;;;;;0.00;0.00;;;3.20;99.90;;;;;;5080807;27;20418;-78
2022/12/22 18:15:01;;;;;;;0.00;0.00;;;3.20;99.90;;;;;;5075527;28;20559;-78
2022/12/22 18:17:29;;;;;;;;;;;3.40;99.90;;;;;;5081992;28;21434;-77
2022/12/22 18:19:58;;;;;;;0.00;0.00;;;3.50;99.90;;;;;;5077270;28;19958;-77
2022/12/22 18:22:28;;;;;;;0.00;0.00;;;3.80;99.90;;;;;;5082629;28;20033;-78
2022/12/22 18:25:00;;;;;;;0.00;0.00;;;4.40;99.90;;;;;;5081025;28;20128;-77
2022/12/22 18:27:28;;;;;;;0.00;0.00;;;4.80;99.90;;;;;;5080382;28;20035;-77
2022/12/22 18:29:54;;;;;;;0.00;0.00;;;5.20;99.90;;;;;;5077016;28;20028;-77
2022/12/22 18:32:33;;;;;;;0.00;0.00;;;5.70;99.90;;;;;;5074380;28;20499;-78
2022/12/22 18:34:59;;;;;;;0.00;0.00;;;6.00;99.90;;;;;;5080250;28;20082;-78
2022/12/22 18:37:25;;;;;;;0.00;0.00;;;6.40;99.90;;;;;;5075767;28;20559;-78
2022/12/22 18:39:59;;;;;;;0.00;0.00;;;6.60;99.90;;;;;;5081023;28;20141;-78
2022/12/22 18:42:33;;;;;;;0.00;0.00;;;6.60;99.90;;;;;;5079379;28;20099;-78
2022/12/22 18:44:59;;;;;;;0.00;0.00;;;6.60;99.90;;;;;;5082519;28;20153;-76
2022/12/22 18:47:29;;;;;;;;;;;6.60;99.90;;;;;;5080503;28;20028;-76
2022/12/22 18:50:02;;;;;;;0.00;0.00;;;6.50;99.90;;;;;;5078176;28;19915;-76
2022/12/22 18:52:30;;;;;;;0.00;0.00;;;6.60;99.90;;;;;;5080301;28;20028;-77
2022/12/22 18:54:56;;;;;;;0.00;0.00;;;6.60;99.90;;;;;;5073930;28;20029;-78
2022/12/22 18:57:22;;;;;;;0.00;0.00;;;6.60;99.90;;;;;;5059670;28;20184;-78
2022/12/22 18:59:54;;;;;;;0.00;0.00;;;6.70;99.90;;;;;;5053126;28;20017;-77
2022/12/22 19:02:30;;;;;;;0.00;0.00;;;6.80;99.90;;;;;;5054610;28;20024;-78
2022/12/22 19:04:57;;;;;;;0.00;0.00;;;6.90;99.90;;;;;;5054953;28;20021;-78
2022/12/22 19:07:25;;;;;;;0.00;0.00;;;7.00;99.90;;;;;;5058547;28;20266;-78
2022/12/22 19:10:01;;;;;;;0.00;0.00;;;7.20;99.90;;;;;;5055440;28;20024;-78
2022/12/22 19:12:30;;;;;;;0.00;0.00;;;7.40;99.90;;;;;;5060595;28;20035;-78
2022/12/22 19:15:01;;;;;;;0.00;0.00;;;7.50;99.90;;;;;;5060900;28;20024;-78
2022/12/22 19:17:28;;;;;;;0.00;0.00;;;7.70;99.90;;;;;;5057130;28;20044;-78
2022/12/22 19:19:55;;;;;;;0.00;0.00;;;7.80;99.90;;;;;;5061416;28;20382;-77
2022/12/22 19:22:22;;;;;;;0.00;0.00;;;8.00;99.90;;;;;;5061740;28;20036;-78
2022/12/22 19:24:50;;;;;;;0.00;0.00;;;8.00;99.90;;;;;;5033681;28;20091;-77
2022/12/22 19:27:20;;;;;;;0.00;0.00;;;8.30;99.90;;;;;;5052922;28;20034;-77
2022/12/22 19:29:46;;;;;;;0.00;0.00;;;8.40;99.90;;;;;;5031878;28;20021;-78
2022/12/22 19:32:30;;;;;;;0.00;0.00;;;8.50;99.90;;;;;;5035260;28;20056;-78
2022/12/22 19:34:58;;;;;;;0.00;0.00;;;8.50;99.90;;;;;;5029477;28;20079;-77
2022/12/22 19:37:27;;;;;;;0.00;0.00;;;8.50;99.90;;;;;;5035049;28;20102;-78
2022/12/22 19:39:55;;;;;;;0.00;0.00;;;8.60;99.90;;;;;;5040198;28;20021;-78
2022/12/22 19:42:23;;;;;;;0.00;0.00;;;8.80;99.90;;;;;;5043655;28;20534;-78
2022/12/22 19:44:49;;;;;;;0.00;0.00;;;8.90;99.90;;;;;;5045354;28;20032;-77
2022/12/22 19:47:28;;;;;;;0.00;0.00;;;8.90;99.90;;;;;;5043086;28;20108;-77
2022/12/22 19:49:55;;;;;;;0.00;0.00;;;9.00;99.90;;;;;;5051626;28;20021;-79
2022/12/22 19:52:25;;;;;;;0.00;0.00;;;9.00;99.90;;;;;;5044745;28;20847;-78
2022/12/22 19:54:53;;;;;;;0.00;0.00;;;9.10;99.90;;;;;;5045237;28;20315;-78
2022/12/22 19:57:22;;;;;;;0.00;0.00;;;9.10;99.90;;;;;;5045868;28;20013;-77
2022/12/22 19:59:52;;;;;;;0.10;0.10;;;9.20;99.90;;;;;;5044261;28;20020;-78
2022/12/22 20:02:31;;;;;;;0.00;0.00;;;9.30;99.90;;;;;;5040481;28;20482;-78
2022/12/22 20:05:00;;;;;;;0.00;0.00;;;9.30;99.90;;;;;;5045443;28;20024;-77
2022/12/22 20:07:28;;;;;;;0.00;0.00;;;9.30;99.90;;;;;;5041986;28;20484;-78
2022/12/22 20:09:55;;;;;;;0.00;0.00;;;9.30;99.90;;;;;;5049680;28;20028;-78
2022/12/22 20:12:27;;;;;;;0.00;0.00;;;9.30;99.90;;;;;;5042138;28;20036;-77
2022/12/22 20:15:27;;;;;;;0.03;0.03;;;9.30;99.90;;;;;;5040332;28;20013;-78
2022/12/22 20:18:01;;;;;;;0.00;0.00;;;9.30;99.90;;;;;;5044262;28;20437;-79
2022/12/22 20:20:32;;;;;;;0.00;0.00;;;9.20;99.90;;;;;;5032729;28;20195;-76
2022/12/22 20:23:15;;;;;;;0.00;0.00;;;9.30;99.90;;;;;;5056921;28;20051;-76
2022/12/22 20:25:49;;;;;;;0.00;0.00;;;9.20;99.90;;;;;;5043818;28;20025;-75
2022/12/22 20:28:21;;;;;;;0.00;0.00;;;9.20;99.90;;;;;;5042922;28;20532;-75
2022/12/22 20:30:48;;;;;;;0.00;0.00;;;9.20;99.90;;;;;;5043085;28;20047;-75
2022/12/22 20:33:18;;;;;;;0.00;0.00;;;9.20;99.90;;;;;;5043107;28;20025;-76
2022/12/22 20:35:46;;;;;;;0.17;0.17;;;9.10;99.90;;;;;;5045049;28;20021;-76
2022/12/22 20:38:31;;;;;;;0.00;0.00;;;9.10;99.90;;;;;;5069668;28;20661;-76
2022/12/22 20:40:59;;;;;;;0.00;0.00;;;9.00;99.90;;;;;;5046313;28;20124;-76
2022/12/22 20:43:29;;;;;;;0.00;0.00;;;9.00;99.90;;;;;;5039210;28;20017;-75
2022/12/22 20:46:02;;;;;;;0.00;0.00;;;9.00;99.90;;;;;;5036565;28;20031;-75
2022/12/22 20:48:45;;;;;;;0.00;0.00;;;8.90;99.90;;;;;;5041059;28;20032;-76
2022/12/22 20:51:17;;;;;;;0.00;0.00;;;8.80;99.90;;;;;;5039667;28;20024;-76
2022/12/22 20:53:46;;;;;;;0.00;0.00;;;8.80;99.90;;;;;;5042017;28;20021;-75
2022/12/22 20:56:22;;;;;;;0.00;0.00;;;8.80;99.90;;;;;;5041778;28;20096;-76
2022/12/22 20:58:49;;;;;;;0.00;0.00;;;8.70;99.90;;;;;;5042584;28;20043;-74
2022/12/22 21:01:15;;;;;;;0.00;0.00;;;8.70;99.90;;;;;;5039189;28;20029;-74
2022/12/22 21:03:45;;;;;;;0.00;0.00;;;8.60;99.90;;;;;;5045211;28;20474;-74
2022/12/22 21:06:27;;;;;;;0.00;0.00;;;8.60;99.90;;;;;;5046501;28;20042;-74
2022/12/22 21:09:00;;;;;;;0.00;0.00;;;8.60;99.90;;;;;;5049137;28;20390;-74
2022/12/22 21:11:30;;;;;;;0.00;0.00;;;8.60;99.90;;;;;;5041566;28;20028;-76
2022/12/22 21:13:58;;;;;;;0.00;0.00;;;8.70;99.90;;;;;;5052261;28;20030;-76
2022/12/22 21:16:27;;;;;;;0.00;0.00;;;8.60;99.90;;;;;;5040091;28;20021;-76
2022/12/22 21:19:00;;;;;;;0.00;0.00;;;8.60;99.90;;;;;;5049590;28;20040;-76
2022/12/22 21:21:28;;;;;;;0.00;0.00;;;8.60;99.90;;;;;;5048477;28;20945;-76
2022/12/22 21:23:56;;;;;;;0.00;0.00;;;8.60;99.90;;;;;;5049798;28;20067;-76
2022/12/22 21:26:41;;;;;;;0.00;0.00;;;8.60;99.90;;;;;;5049303;28;20025;-76
2022/12/22 21:29:21;;;;;;;0.00;0.00;;;8.60;99.90;;;;;;5045709;28;20028;-76
2022/12/22 21:31:49;;;;;;;0.00;0.00;;;8.60;99.90;;;;;;5049394;28;20063;-76
2022/12/22 21:34:15;;;;;;;0.00;0.00;;;8.60;99.90;;;;;;5043850;28;20029;-76
2022/12/22 21:36:42;;;;;;;0.00;0.00;;;8.70;99.90;;;;;;5049129;28;20059;-76
2022/12/22 21:39:38;;;;;;;0.00;0.00;;;8.70;99.90;;;;;;5048077;28;20017;-76
2022/12/22 21:42:06;;;;;;;0.00;0.00;;;8.70;99.90;;;;;;5038687;28;20029;-76
2022/12/22 21:44:34;;;;;;;0.00;0.00;;;8.70;99.90;;;;;;5049546;28;20029;-76
2022/12/22 21:47:02;;;;;;;0.00;0.00;;;8.70;99.90;;;;;;5042280;28;20035;-76
2022/12/22 21:49:33;;;;;;;0.00;0.00;;;8.70;99.90;;;;;;5043691;28;20486;-76
2022/12/22 21:52:01;;;;;;;0.00;0.00;;;8.80;99.90;;;;;;5051749;28;20976;-75
2022/12/22 21:54:28;;;;;;;0.00;0.00;;;8.70;99.90;;;;;;5046323;28;20025;-75
2022/12/22 21:56:55;;;;;;;0.00;0.00;;;8.70;99.90;;;;;;5045684;28;20021;-75
2022/12/22 21:59:21;;;;;;;0.15;0.15;;;8.70;99.90;;;;;;5041906;28;20031;-75
2022/12/22 22:01:52;;;;;;;0.00;0.00;;;8.70;99.90;;;;;;5042670;28;20445;-76
2022/12/22 22:04:19;;;;;;;0.00;0.00;;;8.60;99.90;;;;;;5044495;28;20035;-74
2022/12/22 22:06:45;;;;;;;0.00;0.00;;;8.50;99.90;;;;;;5044406;28;20104;-74
2022/12/22 22:09:12;;;;;;;0.00;0.00;;;8.50;99.90;;;;;;5051542;28;20115;-74
2022/12/22 22:14:26;;;;;;;0.00;0.00;;;8.40;99.90;;;;;;5042843;28;20793;-73
2022/12/22 22:16:51;;;;;;;0.00;0.00;;;8.30;99.90;;;;;;5046370;28;20041;-73
2022/12/22 22:19:18;;;;;;;0.00;0.00;;;8.40;99.90;;;;;;5045252;28;20086;-73
2022/12/22 22:21:45;;;;;;;0.00;0.00;;;8.40;99.90;;;;;;5043218;28;20036;-73
2022/12/22 22:24:12;;;;;;;0.00;0.00;;;8.40;99.90;;;;;;5045250;28;20021;-73
2022/12/22 22:26:45;;;;;;;0.00;0.00;;;8.50;99.90;;;;;;5051347;28;20028;-73
2022/12/22 22:29:22;;;;;;;0.00;0.00;;;8.50;99.90;;;;;;5037352;28;20058;-73
2022/12/22 22:31:47;;;;;;;0.00;0.00;;;8.40;99.90;;;;;;5037799;28;20025;-73
2022/12/22 22:34:18;;;;;;;0.00;0.00;;;8.50;99.90;;;;;;5043733;28;20017;-73
2022/12/22 22:36:50;;;;;;;0.00;0.00;;;8.50;99.90;;;;;;5050786;28;20386;-74
2022/12/22 22:39:15;;;;;;;0.00;0.00;;;8.40;99.90;;;;;;5042447;28;20025;-74
2022/12/22 22:41:41;;;;;;;4.03;0.53;;;8.40;99.90;;;;;;5046182;28;20055;-73
2022/12/22 22:44:07;;;;;;;0.00;0.00;;;8.50;99.90;;;;;;5045472;28;20032;-73
2022/12/22 22:46:35;;;;;;;0.00;0.00;;;8.50;99.90;;;;;;5050962;28;20087;-74
2022/12/22 22:49:01;;;;;;;0.00;0.00;;;8.40;99.90;;;;;;5049071;28;20385;-73
2022/12/22 22:51:27;;;;;;;0.00;0.00;;;8.40;99.90;;;;;;5052278;28;20033;-74
2022/12/22 22:53:53;;;;;;;0.00;0.00;;;8.40;99.90;;;;;;5048383;28;20028;-74
2022/12/22 22:56:22;;;;;;;;;;;8.50;99.90;;;;;;5042971;28;20025;-74
2022/12/22 22:58:49;;;;;;;0.00;0.00;;;8.60;99.90;;;;;;5055383;28;19944;-73
2022/12/22 23:01:15;;;;;;;0.00;0.00;;;8.60;99.90;;;;;;5052596;28;20363;-73
2022/12/22 23:03:46;;;;;;;0.00;0.00;;;8.60;99.90;;;;;;5057636;28;20028;-72
2022/12/22 23:06:12;;;;;;;0.00;0.00;;;8.60;99.90;;;;;;5055389;28;20024;-73
2022/12/22 23:08:40;;;;;;;0.00;0.00;;;8.50;99.90;;;;;;5050748;28;20028;-74
2022/12/22 23:11:12;;;;;;;0.00;0.00;;;8.50;99.90;;;;;;5057363;28;20029;-74
2022/12/22 23:13:38;;;;;;;0.10;0.10;;;8.50;99.90;;;;;;5047385;28;20021;-74
2022/12/22 23:16:04;;;;;;;0.10;0.10;;;8.40;99.90;;;;;;5054182;28;20090;-74
2022/12/22 23:18:33;;;;;;;0.00;0.00;;;8.40;99.90;;;;;;5053699;28;20613;-74
2022/12/22 23:21:01;;;;;;;0.00;0.00;;;8.30;99.90;;;;;;5056681;28;20480;-74
2022/12/22 23:23:33;;;;;;;0.00;0.00;;;8.40;99.90;;;;;;5068480;28;20114;-74
2022/12/22 23:25:59;;;;;;;0.00;0.00;;;8.40;99.90;;;;;;5050680;28;20025;-74
2022/12/22 23:28:25;;;;;;;0.00;0.00;;;8.30;99.90;;;;;;5056374;28;20036;-74
2022/12/22 23:30:52;;;;;;;0.00;0.00;;;8.40;99.90;;;;;;5048633;28;20722;-73
2022/12/22 23:33:19;;;;;;;0.00;0.00;;;8.40;99.90;;;;;;5056439;28;20527;-73
2022/12/22 23:35:46;;;;;;;0.00;0.00;;;8.30;99.90;;;;;;5053764;28;20024;-74
2022/12/22 23:38:12;;;;;;;0.00;0.00;;;8.20;99.90;;;;;;5053599;28;20023;-74
2022/12/22 23:40:39;;;;;;;0.00;0.00;;;8.20;99.90;;;;;;5049282;28;20016;-74
2022/12/22 23:43:07;;;;;;;0.00;0.00;;;8.00;99.90;;;;;;5062608;28;20029;-73
2022/12/22 23:45:34;;;;;;;0.00;0.00;;;8.00;99.90;;;;;;5048099;28;20021;-73
2022/12/22 23:47:59;;;;;;;;;;;8.00;99.90;;;;;;5051988;28;20056;-74
2022/12/22 23:50:26;;;;;;;0.00;0.00;;;8.00;99.90;;;;;;5054574;28;20049;-74
2022/12/22 23:52:52;;;;;;;;;;;8.00;99.90;;;;;;5070862;28;20028;-74
2022/12/22 23:55:18;;;;;;;0.00;0.00;;;8.00;99.90;;;;;;5053916;28;20289;-74
2022/12/22 23:57:44;;;;;;;0.00;0.00;;;8.10;99.90;;;;;;5051809;28;20017;-74
